Lewiston Nez Perce County Airport Lewiston US
ICAO: KLWS
IATA: LWS
Category: Medium
Scheduled Services: Yes

Elevation: 1442 ft
TransAlt. 18000 ft.

Airport Communications:
ASOS:135.575
SEATTLE CNTR:123.95
CTAF:119.4
GND:121.9
BOISE RDO:122.35
TWR:119.4
UNICOM:122.95

KLWS Zoom In..

Runways:

(A) RW 08 length 6512 ft width 150 ft
---- / hdg 83

(B) RW 12 length 5000 ft width 100 ft
---- / hdg 116

(C) RW 26 length 6512 ft width 150 ft
ILS 109.70 / hdg 263

(D) RW 30 length 5000 ft width 100 ft
---- / hdg 296

Location; KLWS
Day. 21 / Time. 14.56 Zulu
* Altimeter: 29.94
* Temperature: 18° c. 64.4°f.
* Wind from: 000° Speed 00 kn.
Dewpoint: 15° c.
Visibility: 10 Statute Miles.
Clouds: Overcast 9000 ft.

KLWS 211456Z AUTO 00000KT 10SM OVC090 18/15 A2994 RMK AO2 SLP133 T01780150 53012 $


Wind - Calm.

 
 
jpsmedia.com for Web Design SOUNDCLOUD worldairports.se 2018   terms of use